LUG weather

Ellington Airport
Lewisburg, Tennessee, United States

Public forecast

Using degrees Fahrenheit for public forecast. Weather courtesy of forecast.io.

Current aviation weather report (METAR) for Ellington Airport

Retrieved 2019/10/16 05:35 UTC (7 minutes ago):

KLUG 160535Z AUTO 00000KT 10SM FEW016 SCT022 BKN034 19/17 A2985 RMK A01

Closest aviation forecast (TAF) to Ellington Airport

Closest forecast is Smyrna Airport, 33.2 nm (61.4 km) NNE. Retrieved 2019-10-16 00:21 UTC (5 hours ago):

TAF KMQY 152320Z 1600/1624 18004KT P6SM SKC FM160200 18005KT P6SM VCSH OVC025 FM160500 21006KT 5SM -SHRA BKN007 OVC015 FM160900 30011G19KT 5SM -SHRA OVC007 FM161200 32012G20KT P6SM FEW007 SCT050 FM161600 33012G18KT P6SM SKC